Time;durP1;ratioP1;P1;durP2;ratioP2;P2;SDS_P1;SDS_P2;PMS_P1;PMS_P2;Temp;Humidity;BMP_temperature;BMP_pressure;BME280_temperature;BME280_humidity;BME280_pressure;Samples;Min_cycle;Max_cycle;Signal;HPM_P1;HPM_P2
2023/12/09 00:01:30;;;;;;;9.15;3.70;;;8.60;99.90;;;;;;5058700;28;20056;-36
2023/12/09 00:03:55;;;;;;;8.45;4.05;;;8.70;99.90;;;;;;5061116;28;20028;-39
2023/12/09 00:06:22;;;;;;;6.95;3.67;;;8.70;99.90;;;;;;5059219;28;20033;-37
2023/12/09 00:08:48;;;;;;;10.32;4.03;;;8.70;99.90;;;;;;5059123;28;20115;-37
2023/12/09 00:11:13;;;;;;;6.97;3.38;;;8.60;99.90;;;;;;5055063;28;20042;-36
2023/12/09 00:13:39;;;;;;;8.20;3.58;;;8.60;99.90;;;;;;5059564;28;20044;-35
2023/12/09 00:16:05;;;;;;;7.28;3.55;;;8.60;99.90;;;;;;5060904;28;20028;-37
2023/12/09 00:18:30;;;;;;;9.23;4.45;;;8.60;99.90;;;;;;5060727;28;20033;-37
2023/12/09 00:20:56;;;;;;;9.52;3.95;;;8.70;99.90;;;;;;5058887;28;20029;-36
2023/12/09 00:23:22;;;;;;;8.38;3.60;;;8.70;99.90;;;;;;5060981;28;20028;-36
2023/12/09 00:25:50;;;;;;;8.07;3.60;;;8.70;99.90;;;;;;5060814;28;20161;-37
2023/12/09 00:28:16;;;;;;;10.48;4.18;;;8.70;99.90;;;;;;5060450;28;20456;-37
2023/12/09 00:30:41;;;;;;;7.05;3.55;;;8.70;99.90;;;;;;5059061;28;20033;-40
2023/12/09 00:33:08;;;;;;;6.00;3.03;;;8.80;99.90;;;;;;5059955;28;20395;-35
2023/12/09 00:35:33;;;;;;;7.15;3.45;;;8.70;99.90;;;;;;5059200;28;20479;-36
2023/12/09 00:37:59;;;;;;;5.82;3.13;;;8.70;99.90;;;;;;5060288;28;20031;-36
2023/12/09 00:40:25;;;;;;;7.88;3.42;;;8.70;99.90;;;;;;5060573;28;20028;-38
2023/12/09 00:42:50;;;;;;;7.97;3.72;;;8.80;99.90;;;;;;5058782;28;20831;-36
2023/12/09 00:45:16;;;;;;;9.88;4.20;;;8.70;99.90;;;;;;5060842;28;20783;-37
2023/12/09 00:47:41;;;;;;;11.50;3.75;;;8.70;99.90;;;;;;5059692;28;20047;-37
2023/12/09 00:50:13;;;;;;;10.10;3.92;;;8.70;99.90;;;;;;5059047;28;20052;-37
2023/12/09 00:52:39;;;;;;;10.65;3.78;;;8.70;99.90;;;;;;5059581;28;20055;-38
2023/12/09 00:55:05;;;;;;;7.80;3.33;;;8.80;99.90;;;;;;5060121;28;20021;-37
2023/12/09 00:57:30;;;;;;;6.75;3.28;;;8.80;99.90;;;;;;5060294;28;20035;-37
2023/12/09 00:59:56;;;;;;;7.72;3.38;;;8.80;99.90;;;;;;5059394;28;20012;-36
2023/12/09 01:02:21;;;;;;;9.45;3.78;;;8.80;99.90;;;;;;5058714;28;20040;-37
2023/12/09 01:04:47;;;;;;;8.30;3.90;;;8.80;99.90;;;;;;5060448;28;20511;-37
2023/12/09 01:07:12;;;;;;;10.98;3.38;;;8.80;99.90;;;;;;5059105;28;20082;-38
2023/12/09 01:09:38;;;;;;;7.38;3.53;;;8.80;99.90;;;;;;5059662;28;20146;-37
2023/12/09 01:12:04;;;;;;;9.25;3.58;;;8.70;99.90;;;;;;5058807;28;20051;-36
2023/12/09 01:14:30;;;;;;;9.40;4.13;;;8.70;99.90;;;;;;5059930;28;20029;-37
2023/12/09 01:16:56;;;;;;;9.55;3.83;;;8.70;99.90;;;;;;5058451;28;20115;-35
2023/12/09 01:19:24;;;;;;;5.93;3.30;;;8.70;99.90;;;;;;5060390;28;20059;-36
2023/12/09 01:21:50;;;;;;;9.65;3.90;;;8.70;99.90;;;;;;5060391;28;20033;-37
2023/12/09 01:24:16;;;;;;;11.32;4.30;;;8.70;99.90;;;;;;5063486;28;20031;-35
2023/12/09 01:26:45;;;;;;;8.90;3.90;;;8.70;99.90;;;;;;5063796;28;20029;-37
2023/12/09 01:29:10;;;;;;;8.02;3.35;;;8.70;99.90;;;;;;5063957;28;20052;-37
2023/12/09 01:31:36;;;;;;;7.65;3.50;;;8.70;99.90;;;;;;5062991;28;20416;-37
2023/12/09 01:34:01;;;;;;;9.77;3.40;;;8.70;99.90;;;;;;5063108;28;20593;-36
2023/12/09 01:36:28;;;;;;;6.70;3.25;;;8.70;99.90;;;;;;5063118;28;20077;-37
2023/12/09 01:38:54;;;;;;;6.95;3.65;;;8.70;99.90;;;;;;5062325;28;20060;-37
2023/12/09 01:41:19;;;;;;;8.15;3.78;;;8.70;99.90;;;;;;5062834;28;20132;-36
2023/12/09 01:43:49;;;;;;;5.95;3.30;;;8.70;99.90;;;;;;5063229;28;20021;-36
2023/12/09 01:46:16;;;;;;;9.38;3.97;;;8.70;99.90;;;;;;5063180;28;20024;-41
2023/12/09 01:48:45;;;;;;;9.93;3.40;;;8.70;99.90;;;;;;5062597;28;20483;-36
2023/12/09 01:51:12;;;;;;;7.15;3.33;;;8.70;99.90;;;;;;5062617;28;20093;-37
2023/12/09 01:53:37;;;;;;;7.70;3.40;;;8.70;99.90;;;;;;5063837;28;20051;-36
2023/12/09 01:56:06;;;;;;;6.63;3.13;;;8.60;99.90;;;;;;5062679;28;20489;-36
2023/12/09 01:58:33;;;;;;;8.32;3.38;;;8.70;99.90;;;;;;5059501;28;20025;-37
2023/12/09 02:00:59;;;;;;;8.88;3.80;;;8.70;99.90;;;;;;5062965;28;20017;-36
2023/12/09 02:03:29;;;;;;;8.00;3.65;;;8.70;99.90;;;;;;5062739;28;20694;-36
2023/12/09 02:05:54;;;;;;;8.65;4.03;;;8.70;99.90;;;;;;5061758;28;20027;-37
2023/12/09 02:08:20;;;;;;;7.80;4.07;;;8.60;99.90;;;;;;5063449;28;20726;-36
2023/12/09 02:10:58;;;;;;;6.43;3.40;;;8.60;99.90;;;;;;5062192;28;20036;-35
2023/12/09 02:13:33;;;;;;;7.50;3.53;;;8.70;99.90;;;;;;5061164;28;20430;-36
2023/12/09 02:16:40;;;;;;;11.52;4.38;;;8.60;99.90;;;;;;5062254;28;20036;-35
2023/12/09 02:19:10;;;;;;;7.75;3.83;;;8.60;99.90;;;;;;5050032;28;20119;-35
2023/12/09 02:21:59;;;;;;;15.68;4.72;;;8.60;99.90;;;;;;5062099;28;20421;-36
2023/12/09 02:24:25;;;;;;;7.93;3.70;;;8.60;99.90;;;;;;5062024;28;20514;-35
2023/12/09 02:26:52;;;;;;;10.13;4.35;;;8.60;99.90;;;;;;5061557;28;20115;-36
2023/12/09 02:29:19;;;;;;;8.57;3.70;;;8.60;99.90;;;;;;5062535;28;20025;-36
2023/12/09 02:31:48;;;;;;;7.78;3.50;;;8.60;99.90;;;;;;5062536;28;20025;-35
2023/12/09 02:34:15;;;;;;;9.80;4.05;;;8.50;99.90;;;;;;5061170;28;20033;-36
2023/12/09 02:36:44;;;;;;;8.80;3.70;;;8.50;99.90;;;;;;5062314;28;20032;-36
2023/12/09 02:39:12;;;;;;;5.80;3.08;;;8.60;99.90;;;;;;5061641;28;20036;-36
2023/12/09 02:41:39;;;;;;;7.13;3.40;;;8.50;99.90;;;;;;5061535;28;20182;-37
2023/12/09 02:44:05;;;;;;;7.25;3.50;;;8.50;99.90;;;;;;5062429;28;20039;-37
2023/12/09 02:46:31;;;;;;;7.85;3.72;;;8.50;99.90;;;;;;5062646;28;20033;-36
2023/12/09 02:48:59;;;;;;;7.68;3.58;;;8.50;99.90;;;;;;5061458;28;20020;-37
2023/12/09 02:51:25;;;;;;;7.47;2.95;;;8.50;99.90;;;;;;5062217;28;20753;-36
2023/12/09 02:53:51;;;;;;;6.90;3.55;;;8.40;99.90;;;;;;5061486;28;20790;-36
2023/12/09 02:56:16;;;;;;;8.55;3.42;;;8.40;99.90;;;;;;5061393;28;20020;-36
2023/12/09 02:58:42;;;;;;;8.07;3.13;;;8.40;99.90;;;;;;5061245;28;20107;-37
2023/12/09 03:01:07;;;;;;;8.18;3.33;;;8.30;99.90;;;;;;5061815;28;20020;-36
2023/12/09 03:03:33;;;;;;;8.23;3.50;;;8.40;99.90;;;;;;5061499;28;20020;-36
2023/12/09 03:05:59;;;;;;;7.22;3.47;;;8.30;99.90;;;;;;5067629;28;20016;-36
2023/12/09 03:08:24;;;;;;;8.07;3.72;;;8.30;99.90;;;;;;5061880;28;20065;-37
2023/12/09 03:10:50;;;;;;;7.97;3.33;;;8.30;99.90;;;;;;5060779;28;20786;-37
2023/12/09 03:13:15;;;;;;;9.30;3.83;;;8.30;99.90;;;;;;5061871;28;20046;-37
2023/12/09 03:15:41;;;;;;;5.25;3.30;;;8.20;99.90;;;;;;5060449;28;20038;-36
2023/12/09 03:18:06;;;;;;;7.68;3.55;;;8.30;99.90;;;;;;5061049;28;20125;-36
2023/12/09 03:20:32;;;;;;;5.15;3.50;;;8.20;99.90;;;;;;5061399;28;20529;-36
2023/12/09 03:23:00;;;;;;;8.82;3.78;;;8.20;99.90;;;;;;5060756;28;20405;-36
2023/12/09 03:25:26;;;;;;;5.85;3.70;;;8.20;99.90;;;;;;5061541;28;20081;-36
2023/12/09 03:27:54;;;;;;;6.70;3.35;;;8.20;99.90;;;;;;5061025;28;20040;-37
2023/12/09 03:30:21;;;;;;;10.75;4.25;;;8.20;99.90;;;;;;5061502;28;20100;-37
2023/12/09 03:32:46;;;;;;;8.32;3.53;;;8.20;99.90;;;;;;5061738;28;20044;-35
2023/12/09 03:35:12;;;;;;;9.75;4.03;;;8.20;99.90;;;;;;5061151;28;20069;-37
2023/12/09 03:37:38;;;;;;;10.18;3.90;;;8.20;99.90;;;;;;5061202;28;20056;-38
2023/12/09 03:40:05;;;;;;;13.90;3.78;;;8.10;99.90;;;;;;5061358;28;20327;-40
2023/12/09 03:42:30;;;;;;;8.90;4.07;;;8.10;99.90;;;;;;5061636;28;20753;-37
2023/12/09 03:44:56;;;;;;;12.55;4.13;;;8.10;99.90;;;;;;5059812;28;20027;-37
2023/12/09 03:47:22;;;;;;;7.90;4.07;;;8.10;99.90;;;;;;5061644;28;20036;-37
2023/12/09 03:49:47;;;;;;;8.32;3.90;;;8.00;99.90;;;;;;5067607;28;20076;-37
2023/12/09 03:52:13;;;;;;;7.47;3.95;;;8.00;99.90;;;;;;5060452;28;20111;-37
2023/12/09 03:54:39;;;;;;;8.15;3.40;;;8.00;99.90;;;;;;5061633;28;20490;-37
2023/12/09 03:57:25;;;;;;;10.73;3.65;;;8.00;99.90;;;;;;5061217;28;20039;-37
2023/12/09 03:59:57;;;;;;;9.35;3.53;;;8.00;99.90;;;;;;5060976;28;20027;-37
2023/12/09 04:02:23;;;;;;;8.02;3.17;;;8.00;99.90;;;;;;5061174;28;20146;-39
2023/12/09 04:04:48;;;;;;;9.55;3.25;;;7.90;99.90;;;;;;5060690;28;20032;-37
2023/12/09 04:07:14;;;;;;;8.02;3.10;;;8.00;99.90;;;;;;5060714;28;20017;-37
2023/12/09 04:09:39;;;;;;;8.05;3.45;;;8.00;99.90;;;;;;5060322;28;20020;-36
2023/12/09 04:12:05;;;;;;;7.10;3.10;;;7.90;99.90;;;;;;5059671;28;20028;-37
2023/12/09 04:14:31;;;;;;;8.82;3.42;;;7.90;99.90;;;;;;5060940;28;20137;-37
2023/12/09 04:16:56;;;;;;;8.45;3.33;;;7.90;99.90;;;;;;5060076;28;20530;-37
2023/12/09 04:19:22;;;;;;;7.38;2.90;;;7.90;99.90;;;;;;5060282;28;20064;-37
2023/12/09 04:21:47;;;;;;;8.23;3.05;;;8.00;99.90;;;;;;5059960;28;20166;-38
2023/12/09 04:24:13;;;;;;;6.78;2.97;;;8.00;99.90;;;;;;5060607;28;20075;-36
2023/12/09 04:26:39;;;;;;;7.57;3.00;;;8.00;99.90;;;;;;5059820;28;20016;-37
2023/12/09 04:29:06;;;;;;;7.78;3.75;;;8.00;99.90;;;;;;5061131;28;20029;-35
2023/12/09 04:31:32;;;;;;;6.18;2.70;;;8.00;99.90;;;;;;5060973;28;20773;-36
2023/12/09 04:33:57;;;;;;;9.73;3.00;;;8.00;99.90;;;;;;5059462;28;20123;-36
2023/12/09 04:36:24;;;;;;;7.32;2.67;;;7.90;99.90;;;;;;5061178;28;20025;-36
2023/12/09 04:38:50;;;;;;;8.40;2.97;;;7.90;99.90;;;;;;5060055;28;20119;-36
2023/12/09 04:41:16;;;;;;;7.95;3.20;;;7.90;99.90;;;;;;5059868;28;20036;-36
2023/12/09 04:43:43;;;;;;;6.95;3.20;;;7.90;99.90;;;;;;5059702;28;20029;-37
2023/12/09 04:46:08;;;;;;;8.15;3.03;;;7.90;99.90;;;;;;5060668;28;20032;-37
2023/12/09 04:48:37;;;;;;;7.88;2.67;;;7.90;99.90;;;;;;5059983;28;20032;-37
2023/12/09 04:51:02;;;;;;;5.38;2.80;;;7.80;99.90;;;;;;5060166;28;20127;-37
2023/12/09 04:53:34;;;;;;;4.57;2.35;;;7.80;99.90;;;;;;5060397;28;20055;-37
2023/12/09 04:56:02;;;;;;;4.50;2.40;;;7.70;99.90;;;;;;5059953;28;20024;-37
2023/12/09 04:58:28;;;;;;;5.28;2.38;;;7.70;99.90;;;;;;5064056;28;20035;-41
2023/12/09 05:00:54;;;;;;;6.50;2.88;;;7.70;99.90;;;;;;5063181;28;20020;-37
2023/12/09 05:03:22;;;;;;;6.95;2.60;;;7.70;99.90;;;;;;5063475;28;20100;-37
2023/12/09 05:05:51;;;;;;;5.90;2.20;;;7.70;99.90;;;;;;5064200;28;20237;-35
2023/12/09 05:08:19;;;;;;;6.22;3.13;;;7.60;99.90;;;;;;5063845;28;20051;-35
2023/12/09 05:10:46;;;;;;;14.27;3.47;;;7.60;99.90;;;;;;5063815;28;20109;-36
2023/12/09 05:13:11;;;;;;;9.25;3.13;;;7.60;99.90;;;;;;5063268;28;20040;-36
2023/12/09 05:15:37;;;;;;;6.95;3.10;;;7.60;99.90;;;;;;5063225;28;20476;-36
2023/12/09 05:18:03;;;;;;;7.43;2.97;;;7.60;99.90;;;;;;5063862;28;20056;-35
2023/12/09 05:20:29;;;;;;;11.85;3.60;;;7.60;99.90;;;;;;5063665;28;20464;-35
2023/12/09 05:22:55;;;;;;;7.10;2.70;;;7.60;99.90;;;;;;5062324;28;20028;-37
2023/12/09 05:25:21;;;;;;;6.43;3.20;;;7.60;99.90;;;;;;5063992;28;20016;-36
2023/12/09 05:27:47;;;;;;;5.88;2.53;;;7.60;99.90;;;;;;5062824;28;20458;-35
2023/12/09 05:30:12;;;;;;;12.27;3.47;;;7.60;99.90;;;;;;5062323;28;20028;-36
2023/12/09 05:32:38;;;;;;;9.68;3.75;;;7.60;99.90;;;;;;5063993;28;20086;-36
2023/12/09 05:35:04;;;;;;;10.18;3.55;;;7.60;99.90;;;;;;5063068;28;20025;-37
2023/12/09 05:37:30;;;;;;;10.25;3.53;;;7.50;99.90;;;;;;5063654;28;20024;-36
2023/12/09 05:39:55;;;;;;;9.48;3.35;;;7.50;99.90;;;;;;5063066;28;20028;-35
2023/12/09 05:42:21;;;;;;;9.60;3.30;;;7.50;99.90;;;;;;5063648;28;20017;-36
2023/12/09 05:44:46;;;;;;;10.18;3.22;;;7.50;99.90;;;;;;5063322;28;20154;-36
2023/12/09 05:47:12;;;;;;;7.45;3.25;;;7.50;99.90;;;;;;5064020;28;20029;-36
2023/12/09 05:49:38;;;;;;;8.82;3.38;;;7.50;99.90;;;;;;5064248;28;20040;-35
2023/12/09 05:52:04;;;;;;;6.07;2.50;;;7.40;99.90;;;;;;5062788;28;20040;-36
2023/12/09 05:54:31;;;;;;;6.63;2.83;;;7.50;99.90;;;;;;5063189;28;20039;-36
2023/12/09 05:56:57;;;;;;;6.85;3.08;;;7.50;99.90;;;;;;5062709;28;20024;-41
2023/12/09 05:59:23;;;;;;;7.65;2.65;;;7.40;99.90;;;;;;5062578;28;20028;-36
2023/12/09 06:01:49;;;;;;;7.38;3.00;;;7.40;99.90;;;;;;5062869;28;20060;-36
2023/12/09 06:04:14;;;;;;;6.85;2.58;;;7.40;99.90;;;;;;5063476;28;20153;-37
2023/12/09 06:06:40;;;;;;;8.43;2.72;;;7.40;99.90;;;;;;5062420;28;20028;-36
2023/12/09 06:09:06;;;;;;;5.72;2.65;;;7.40;99.90;;;;;;5061979;28;20377;-35
2023/12/09 06:11:32;;;;;;;7.22;2.97;;;7.40;99.90;;;;;;5062860;28;20039;-36
2023/12/09 06:13:58;;;;;;;9.93;2.70;;;7.40;99.90;;;;;;5062951;28;20036;-36
2023/12/09 06:16:23;;;;;;;7.70;2.65;;;7.40;99.90;;;;;;5062834;28;20032;-35
2023/12/09 06:18:49;;;;;;;8.13;3.53;;;7.40;99.90;;;;;;5062026;28;20047;-36
2023/12/09 06:21:25;;;;;;;11.48;3.25;;;7.40;99.90;;;;;;5063206;28;20012;-35
2023/12/09 06:23:54;;;;;;;5.15;2.47;;;7.40;99.90;;;;;;5062570;28;20081;-36
2023/12/09 06:26:20;;;;;;;6.22;2.70;;;7.40;99.90;;;;;;5061603;28;20035;-37
2023/12/09 06:28:46;;;;;;;7.65;3.03;;;7.40;99.90;;;;;;5061031;28;20017;-37
2023/12/09 06:31:12;;;;;;;6.38;2.60;;;7.40;99.90;;;;;;5062187;28;20058;-36
2023/12/09 06:33:37;;;;;;;6.45;2.90;;;7.50;99.90;;;;;;5060569;28;20151;-37
2023/12/09 06:36:04;;;;;;;6.72;2.60;;;7.50;99.90;;;;;;5059496;28;20725;-36
2023/12/09 06:38:30;;;;;;;9.00;2.72;;;7.50;99.90;;;;;;5061987;28;20111;-36
2023/12/09 06:40:56;;;;;;;6.63;2.70;;;7.50;99.90;;;;;;5060970;28;20031;-36
2023/12/09 06:43:21;;;;;;;10.55;3.33;;;7.50;99.90;;;;;;5061909;28;20025;-35
2023/12/09 06:45:47;;;;;;;9.50;3.30;;;7.50;99.90;;;;;;5061520;28;20127;-36
2023/12/09 06:48:13;;;;;;;9.90;3.05;;;7.50;99.90;;;;;;5060030;28;20031;-35
2023/12/09 06:50:39;;;;;;;9.80;2.95;;;7.50;99.90;;;;;;5062509;28;20102;-37
2023/12/09 06:53:04;;;;;;;11.05;3.88;;;7.50;99.90;;;;;;5061386;28;20036;-35
2023/12/09 06:55:30;;;;;;;7.80;2.90;;;7.50;99.90;;;;;;5060276;28;20032;-35
2023/12/09 06:57:56;;;;;;;7.18;2.72;;;7.50;99.90;;;;;;5061062;28;20161;-37
2023/12/09 07:00:22;;;;;;;7.53;2.83;;;7.50;99.90;;;;;;5059896;28;20029;-36
2023/12/09 07:02:47;;;;;;;8.68;2.83;;;7.60;99.90;;;;;;5059264;28;20036;-36
2023/12/09 07:05:13;;;;;;;7.90;2.70;;;7.50;99.90;;;;;;5060606;28;20103;-37
2023/12/09 07:07:40;;;;;;;7.10;3.00;;;7.60;99.90;;;;;;5061922;28;20757;-37
2023/12/09 07:10:07;;;;;;;9.20;3.60;;;7.60;99.90;;;;;;5061095;28;20025;-37
2023/12/09 07:12:35;;;;;;;6.88;2.92;;;7.50;99.90;;;;;;5061774;28;20067;-37
2023/12/09 07:15:01;;;;;;;5.15;2.47;;;7.50;99.90;;;;;;5061442;28;20422;-36
2023/12/09 07:17:26;;;;;;;9.35;3.15;;;7.60;99.90;;;;;;5062874;28;20025;-36
2023/12/09 07:19:52;;;;;;;10.57;3.30;;;7.60;99.90;;;;;;5059259;28;20037;-36
2023/12/09 07:22:19;;;;;;;12.43;3.35;;;7.60;99.90;;;;;;5060704;28;20025;-36
2023/12/09 07:24:47;;;;;;;7.68;3.60;;;7.50;99.90;;;;;;5061291;28;20081;-36
2023/12/09 07:27:13;;;;;;;10.75;4.03;;;7.60;99.90;;;;;;5059886;28;20044;-37
2023/12/09 07:29:38;;;;;;;8.20;2.90;;;7.60;99.90;;;;;;5057708;28;20986;-36
2023/12/09 07:32:04;;;;;;;7.35;2.97;;;7.60;99.90;;;;;;5061061;28;20040;-36
2023/12/09 07:34:30;;;;;;;7.90;2.78;;;7.60;99.90;;;;;;5060950;28;20646;-37
2023/12/09 07:36:56;;;;;;;7.97;2.50;;;7.60;99.90;;;;;;5058479;28;20035;-37
2023/12/09 07:39:22;;;;;;;7.88;3.15;;;7.60;99.90;;;;;;5058592;28;20032;-38
2023/12/09 07:41:51;;;;;;;10.52;3.45;;;7.60;99.90;;;;;;5059683;28;20471;-37
2023/12/09 07:44:20;;;;;;;8.23;3.15;;;7.70;99.90;;;;;;5060987;28;20073;-36
2023/12/09 07:46:50;;;;;;;8.93;3.28;;;7.70;99.90;;;;;;5059651;28;20085;-36
2023/12/09 07:49:16;;;;;;;8.65;3.28;;;7.70;99.90;;;;;;5060223;28;20078;-37
2023/12/09 07:51:42;;;;;;;9.00;3.33;;;7.70;99.90;;;;;;5057909;28;20060;-37
2023/12/09 07:54:08;;;;;;;7.15;2.92;;;7.70;99.90;;;;;;5064544;28;20033;-36
2023/12/09 07:56:34;;;;;;;5.45;2.60;;;7.70;99.90;;;;;;5059529;28;20020;-36
2023/12/09 07:58:59;;;;;;;6.18;2.45;;;7.80;99.90;;;;;;5060396;28;20043;-38
2023/12/09 08:01:26;;;;;;;12.25;4.03;;;7.80;99.90;;;;;;5060832;28;20024;-36
2023/12/09 08:03:52;;;;;;;4.38;2.17;;;7.80;99.90;;;;;;5059427;28;20037;-37
2023/12/09 08:06:18;;;;;;;8.73;2.67;;;7.80;99.90;;;;;;5059591;28;20522;-37
2023/12/09 08:08:43;;;;;;;7.20;2.65;;;7.80;99.90;;;;;;5061730;28;20048;-37
2023/12/09 08:11:09;;;;;;;6.50;2.50;;;7.90;99.90;;;;;;5058831;28;20032;-35
2023/12/09 08:13:35;;;;;;;8.50;3.10;;;7.90;99.90;;;;;;5060281;28;20450;-36
2023/12/09 08:16:01;;;;;;;7.35;2.90;;;7.90;99.90;;;;;;5060461;28;20090;-35
2023/12/09 08:18:27;;;;;;;8.05;3.08;;;7.90;99.90;;;;;;5060453;28;20372;-38
2023/12/09 08:20:53;;;;;;;6.28;2.47;;;7.90;99.90;;;;;;5060468;28;20036;-36
2023/12/09 08:23:19;;;;;;;6.00;2.50;;;8.00;99.90;;;;;;5060564;28;20028;-37
2023/12/09 08:25:44;;;;;;;8.85;3.03;;;7.90;99.90;;;;;;5059943;28;20140;-37
2023/12/09 08:28:14;;;;;;;6.00;2.58;;;7.90;99.90;;;;;;5061329;28;20023;-36
2023/12/09 08:30:39;;;;;;;5.40;2.70;;;7.90;99.90;;;;;;5058421;28;20070;-36
2023/12/09 08:33:05;;;;;;;9.15;3.03;;;8.00;99.90;;;;;;5063552;28;20043;-35
2023/12/09 08:35:30;;;;;;;8.70;2.78;;;8.00;99.90;;;;;;5065418;28;20029;-36
2023/12/09 08:37:56;;;;;;;8.20;2.53;;;8.00;99.90;;;;;;5064272;28;20028;-36
2023/12/09 08:40:22;;;;;;;9.27;2.58;;;8.00;99.90;;;;;;5063396;28;20029;-36
2023/12/09 08:42:47;;;;;;;7.18;2.42;;;8.00;99.90;;;;;;5064732;28;20032;-37
2023/12/09 08:45:16;;;;;;;6.88;2.17;;;8.10;99.90;;;;;;5065080;28;20016;-36
2023/12/09 08:47:41;;;;;;;9.90;2.55;;;8.10;99.90;;;;;;5063862;28;20872;-37
2023/12/09 08:50:08;;;;;;;7.85;2.97;;;8.10;99.90;;;;;;5063496;28;20045;-36
2023/12/09 08:52:34;;;;;;;5.38;2.47;;;8.10;99.90;;;;;;5064349;28;20137;-36
2023/12/09 08:55:00;;;;;;;5.85;2.70;;;8.10;99.90;;;;;;5063388;28;20036;-37
2023/12/09 08:57:26;;;;;;;7.00;2.03;;;8.20;99.90;;;;;;5064284;28;20059;-36
2023/12/09 08:59:52;;;;;;;8.00;2.50;;;8.20;99.90;;;;;;5062020;28;20069;-36
2023/12/09 09:02:18;;;;;;;8.30;2.40;;;8.20;99.90;;;;;;5063764;28;20425;-36
2023/12/09 09:04:44;;;;;;;4.15;2.10;;;8.20;99.90;;;;;;5063841;28;20032;-36
2023/12/09 09:07:09;;;;;;;6.60;2.45;;;8.30;99.90;;;;;;5062569;28;20051;-35
2023/12/09 09:09:37;;;;;;;7.78;1.92;;;8.30;99.90;;;;;;5064796;28;20024;-36
2023/12/09 09:12:03;;;;;;;6.30;1.95;;;8.30;99.90;;;;;;5062996;28;20107;-35
2023/12/09 09:14:29;;;;;;;9.43;3.38;;;8.30;99.90;;;;;;5062697;28;20381;-41
2023/12/09 09:16:54;;;;;;;8.20;3.38;;;8.40;99.90;;;;;;5063711;28;20012;-36
2023/12/09 09:19:20;;;;;;;5.30;2.30;;;8.30;99.90;;;;;;5064477;28;20111;-36
2023/12/09 09:21:46;;;;;;;4.70;1.80;;;8.30;99.90;;;;;;5061056;28;20029;-38
2023/12/09 09:24:12;;;;;;;6.57;2.40;;;8.40;99.90;;;;;;5065176;28;20026;-36
2023/12/09 09:26:38;;;;;;;4.93;2.30;;;8.40;99.90;;;;;;5064645;28;20040;-37
2023/12/09 09:29:04;;;;;;;8.18;2.00;;;8.40;99.90;;;;;;5064059;28;20415;-37
2023/12/09 09:31:30;;;;;;;8.50;2.55;;;8.40;99.90;;;;;;5063081;28;20020;-36
2023/12/09 09:33:58;;;;;;;5.43;2.13;;;8.40;99.90;;;;;;5060257;28;20439;-36
2023/12/09 09:36:24;;;;;;;7.38;2.53;;;8.50;99.90;;;;;;5063494;28;20415;-36
2023/12/09 09:38:49;;;;;;;4.68;2.28;;;8.50;99.90;;;;;;5062891;28;20025;-37
2023/12/09 09:41:22;;;;;;;4.43;2.08;;;8.50;99.90;;;;;;5061151;28;20017;-37
2023/12/09 09:44:07;;;;;;;3.70;1.83;;;8.50;99.90;;;;;;5062986;28;20024;-37
2023/12/09 09:46:34;;;;;;;8.00;2.00;;;8.50;99.90;;;;;;5062925;28;20560;-37
2023/12/09 09:49:06;;;;;;;7.10;3.08;;;8.50;99.90;;;;;;5063310;28;20032;-37
2023/12/09 09:51:32;;;;;;;7.03;2.60;;;8.50;99.90;;;;;;5063132;28;20044;-37
2023/12/09 09:54:14;;;;;;;7.30;2.67;;;8.60;99.90;;;;;;5063043;28;20037;-36
2023/12/09 09:56:42;;;;;;;6.30;2.00;;;8.60;99.90;;;;;;5062651;28;20032;-37
2023/12/09 09:59:09;;;;;;;5.13;1.98;;;8.60;99.90;;;;;;5063167;28;20550;-37
2023/12/09 10:01:37;;;;;;;5.40;1.88;;;8.70;99.90;;;;;;5063509;28;20104;-36
2023/12/09 10:04:03;;;;;;;9.27;2.65;;;8.70;99.90;;;;;;5062123;28;20094;-37
2023/12/09 10:06:29;;;;;;;7.53;2.53;;;8.70;99.90;;;;;;5044211;28;20060;-37
2023/12/09 10:08:55;;;;;;;8.20;2.13;;;8.70;99.90;;;;;;5056476;28;20703;-37
2023/12/09 10:11:21;;;;;;;6.40;2.20;;;8.70;99.90;;;;;;5063550;28;20391;-36
2023/12/09 10:13:46;;;;;;;6.95;2.05;;;8.80;99.90;;;;;;5062524;28;20036;-36
2023/12/09 10:16:12;;;;;;;5.55;1.83;;;8.80;99.90;;;;;;5061480;28;20146;-36
2023/12/09 10:18:46;;;;;;;6.05;2.05;;;8.90;99.90;;;;;;5062803;28;20025;-37
2023/12/09 10:21:15;;;;;;;6.85;2.10;;;9.00;99.90;;;;;;5060324;28;20035;-36
2023/12/09 10:23:43;;;;;;;7.88;2.20;;;9.00;99.90;;;;;;5063000;28;20824;-37
2023/12/09 10:26:09;;;;;;;8.27;2.35;;;9.00;99.90;;;;;;5062007;28;20032;-38
2023/12/09 10:28:35;;;;;;;7.40;2.15;;;9.00;99.90;;;;;;5063328;28;20023;-36
2023/12/09 10:31:01;;;;;;;5.85;2.10;;;9.10;99.90;;;;;;5063470;28;20802;-36
2023/12/09 10:33:31;;;;;;;4.97;1.67;;;9.10;99.90;;;;;;5062124;28;20033;-36
2023/12/09 10:35:57;;;;;;;9.77;2.15;;;9.10;99.90;;;;;;5062442;28;20352;-37
2023/12/09 10:38:22;;;;;;;8.88;2.10;;;9.10;99.90;;;;;;5063260;28;20621;-37
2023/12/09 10:40:51;;;;;;;6.63;1.83;;;9.20;99.90;;;;;;5061542;28;20099;-37
2023/12/09 10:43:17;;;;;;;7.68;1.90;;;9.20;99.90;;;;;;5062362;28;20436;-37
2023/12/09 10:45:43;;;;;;;7.65;2.00;;;9.20;99.90;;;;;;5060882;28;20064;-37
2023/12/09 10:48:09;;;;;;;5.70;2.03;;;9.20;99.90;;;;;;5060019;28;20532;-36
2023/12/09 10:50:37;;;;;;;6.32;2.00;;;9.20;99.90;;;;;;5061306;28;20060;-37
2023/12/09 10:53:06;;;;;;;5.50;2.08;;;9.30;99.90;;;;;;5058240;28;20044;-37
2023/12/09 10:55:32;;;;;;;4.63;1.85;;;9.30;99.90;;;;;;5060343;28;20074;-37
2023/12/09 10:57:59;;;;;;;5.00;1.52;;;9.30;99.90;;;;;;5060735;28;20383;-36
2023/12/09 11:00:25;;;;;;;5.88;1.50;;;9.40;99.90;;;;;;5059214;28;20032;-36
2023/12/09 11:02:56;;;;;;;4.45;1.60;;;9.40;99.90;;;;;;5057517;28;20467;-36
2023/12/09 11:05:22;;;;;;;8.27;2.28;;;9.40;99.90;;;;;;5061649;28;20361;-42
2023/12/09 11:07:49;;;;;;;5.00;1.95;;;9.40;99.90;;;;;;5059594;28;20617;-36
2023/12/09 11:10:15;;;;;;;7.45;1.98;;;9.40;99.90;;;;;;5060893;28;20021;-35
2023/12/09 11:12:47;;;;;;;4.38;1.40;;;9.40;99.90;;;;;;5061809;28;20036;-36
2023/12/09 11:15:12;;;;;;;6.30;1.98;;;9.50;99.90;;;;;;5060372;28;20137;-36
2023/12/09 11:17:40;;;;;;;3.78;1.50;;;9.50;99.90;;;;;;5062487;28;20118;-36
2023/12/09 11:20:15;;;;;;;5.38;1.80;;;9.50;99.90;;;;;;5061553;28;20038;-36
2023/12/09 11:22:43;;;;;;;4.55;1.60;;;9.50;99.90;;;;;;5059942;28;20036;-38
2023/12/09 11:25:12;;;;;;;4.55;1.60;;;9.50;99.90;;;;;;5061547;28;20032;-36
2023/12/09 11:27:38;;;;;;;2.83;1.50;;;9.50;99.90;;;;;;5061190;28;20119;-36
2023/12/09 11:30:28;;;;;;;4.75;1.80;;;9.50;99.90;;;;;;5058483;28;20033;-37
2023/12/09 11:32:54;;;;;;;3.85;1.20;;;9.50;99.90;;;;;;5058748;28;20424;-36
2023/12/09 11:35:20;;;;;;;4.32;1.70;;;9.40;99.90;;;;;;5059806;28;20139;-38
2023/12/09 11:37:48;;;;;;;3.75;1.40;;;9.50;99.90;;;;;;5059506;28;20033;-37
2023/12/09 11:40:14;;;;;;;4.88;1.90;;;9.40;99.90;;;;;;5061572;28;20482;-37
2023/12/09 11:42:40;;;;;;;3.53;1.75;;;9.40;99.90;;;;;;5060732;28;20032;-37
2023/12/09 11:45:06;;;;;;;6.25;1.90;;;9.40;99.90;;;;;;5060589;28;20117;-37
2023/12/09 11:47:33;;;;;;;4.70;1.80;;;9.40;99.90;;;;;;5061158;28;20196;-38
2023/12/09 11:49:58;;;;;;;6.40;1.40;;;9.40;99.90;;;;;;5060025;28;20888;-37
2023/12/09 11:52:24;;;;;;;2.30;1.30;;;9.40;99.90;;;;;;5060906;28;20059;-37
2023/12/09 11:55:00;;;;;;;5.15;1.80;;;9.40;99.90;;;;;;5061253;28;20753;-37
2023/12/09 11:57:31;;;;;;;3.72;1.42;;;9.40;99.90;;;;;;5058557;28;20113;-37
2023/12/09 11:59:57;;;;;;;5.32;1.67;;;9.40;99.90;;;;;;5057512;28;20090;-37
2023/12/09 12:02:26;;;;;;;5.50;2.30;;;9.40;99.90;;;;;;5058871;28;20424;-36
2023/12/09 12:04:51;;;;;;;4.30;1.45;;;9.40;99.90;;;;;;5060075;28;20028;-36
2023/12/09 12:07:17;;;;;;;2.63;1.42;;;9.40;99.90;;;;;;5061222;28;20028;-37
2023/12/09 12:09:43;;;;;;;6.22;1.55;;;9.50;99.90;;;;;;5059058;28;20082;-40
2023/12/09 12:12:09;;;;;;;5.13;2.33;;;9.50;99.90;;;;;;5057712;28;20021;-37
2023/12/09 12:14:38;;;;;;;6.40;1.60;;;9.50;99.90;;;;;;5060518;28;20032;-36
2023/12/09 12:17:03;;;;;;;4.45;1.70;;;9.50;99.90;;;;;;5059903;28;20024;-36
2023/12/09 12:19:29;;;;;;;3.22;1.50;;;9.50;99.90;;;;;;5057375;28;20082;-37
2023/12/09 12:21:56;;;;;;;5.53;1.98;;;9.50;99.90;;;;;;5042081;28;20032;-36
2023/12/09 12:24:21;;;;;;;3.72;1.35;;;9.50;99.90;;;;;;5056198;28;20136;-37
2023/12/09 12:26:47;;;;;;;4.60;1.30;;;9.50;99.90;;;;;;5060474;28;20032;-38
2023/12/09 12:29:20;;;;;;;2.45;1.48;;;9.50;99.90;;;;;;5060476;28;20016;-37
2023/12/09 12:31:49;;;;;;;4.97;2.17;;;9.60;99.90;;;;;;5060087;28;20028;-38
2023/12/09 12:34:19;;;;;;;4.57;1.60;;;9.60;99.90;;;;;;5060532;28;20049;-36
2023/12/09 12:36:48;;;;;;;6.70;1.90;;;9.60;99.90;;;;;;5060731;28;20888;-36
2023/12/09 12:39:15;;;;;;;9.98;3.97;;;9.50;99.90;;;;;;5058011;28;20455;-36
2023/12/09 12:41:41;;;;;;;6.95;2.90;;;9.60;99.90;;;;;;5060891;28;20044;-36
2023/12/09 12:44:07;;;;;;;4.32;2.55;;;9.50;99.90;;;;;;5060523;28;20424;-37
2023/12/09 12:46:33;;;;;;;4.30;2.20;;;9.50;99.90;;;;;;5060779;28;20035;-36
2023/12/09 12:49:00;;;;;;;5.75;2.10;;;9.50;99.90;;;;;;5058443;28;20020;-35
2023/12/09 12:51:27;;;;;;;4.07;2.00;;;9.50;99.90;;;;;;5058055;28;20048;-36
2023/12/09 12:53:52;;;;;;;4.88;1.70;;;9.50;99.90;;;;;;5059694;28;20074;-35